This is the latest recevied weather packets stored in our database for station/object KO4APQ. If no packets are shown the sender has not sent any weather packets the latest 1 day(s).
| Time | Temp. | Humidity | Pressure | Rain* | Wind** | Luminosity | Snow |
|---|---|---|---|---|---|---|---|
| 1778111262 | 18.89° C | 89% | 1012.1 hPa | 0 mm | - | 5 W/m² | - |
| 1778110657 | 19.44° C | 88% | 1012.7 hPa | 0 mm | - | 6 W/m² | - |
| 1778110050 | 19.44° C | 87% | 1013 hPa | 0 mm | - | 6 W/m² | - |
| 1778109750 | 19.44° C | 86% | 1013 hPa | 0 mm | - | 12 W/m² | - |
| 1778109448 | 20° C | 85% | 1013.5 hPa | 0 mm | - | 4 W/m² | - |
| 1778109146 | 20° C | 85% | 1013.5 hPa | 0 mm | - | 14 W/m² | - |
| 1778106111 | 24.44° C | 72% | 1012.6 hPa | 0 mm | - | 32 W/m² | - |
| 1778104291 | 26.11° C | 63% | 1012.2 hPa | 0 mm | - | 114 W/m² | - |
| 1778103988 | 26.11° C | 63% | 1012.1 hPa | 0 mm | - | 141 W/m² | - |
| 1778103384 | 25.56° C | 66% | 1011.9 hPa | 0 mm | - | 317 W/m² | - |
| 1778101866 | 25.56° C | 62% | 1012.7 hPa | 0 mm | - | 360 W/m² | - |
| 1778099138 | 24.44° C | 65% | 1013.6 hPa | 0 mm | - | 335 W/m² | - |
| 1778098834 | 25° C | 65% | 1013.7 hPa | 0 mm | - | 234 W/m² | - |
| 1778096106 | 23.89° C | 68% | 1014.4 hPa | 0 mm | - | 197 W/m² | - |
| 1778095195 | 24.44° C | 67% | 1014.4 hPa | 0 mm | - | 340 W/m² | - |
| 1778094286 | 24.44° C | 69% | 1014.8 hPa | 0 mm | - | 505 W/m² | - |
| 1778092771 | 23.89° C | 69% | 1015.1 hPa | 0 mm | - | 459 W/m² | - |
| 1778092466 | 23.89° C | 68% | 1015.2 hPa | 0 mm | - | 359 W/m² | - |
| 1778090042 | 23.33° C | 72% | 1015.1 hPa | 0 mm | - | 967 W/m² | - |
| 1778089739 | 23.33° C | 73% | 1014.8 hPa | 0 mm | - | 997 W/m² | - |
| 1778089134 | 22.22° C | 78% | 1015.1 hPa | 0 mm | - | 370 W/m² | - |
| 1778088830 | 22.22° C | 79% | 1015.2 hPa | 0 mm | - | 363 W/m² | - |
| 1778086712 | 21.11° C | 83% | 1015.8 hPa | 0 mm | - | 197 W/m² | - |
| 1778085194 | 20.56° C | 77% | 1015.7 hPa | 3.56 mm | - | 200 W/m² | - |
| 1778084890 | 20.56° C | 78% | 1015.5 hPa | 1.78 mm | - | 198 W/m² | - |
* Rain latest hour (hover to see other rain measurements)
** Current wind speed in m/s (hover to see current wind gust speed)